Time,TemperatureF,DewpointF,PressureIn,WindDirection,WindDirectionDegrees,WindSpeedMPH,WindSpeedGustMPH,Humidity,HourlyPrecipIn,Conditions,Clouds,dailyrainin,SolarRadiationWatts/m^2,SoftwareType,DateUTC
2013-10-05 00:43:00,18.0,13.0,-100.00,WNW,299,4.0,7.0,79,0.00,,,-99.99,0.000000,,2013-10-05 06:43:00,
2013-10-05 00:52:00,18.0,13.0,-100.00,WNW,299,4.0,7.0,79,0.00,,,-99.99,0.000000,,2013-10-05 06:52:00,
2013-10-05 01:02:00,18.0,13.0,-100.00,WNW,299,4.0,7.0,79,0.00,,,-99.99,0.000000,,2013-10-05 07:02:00,
2013-10-05 01:12:00,18.0,13.0,-100.00,WNW,299,4.0,7.0,79,0.00,,,-99.99,0.000000,,2013-10-05 07:12:00,
2013-10-05 01:42:00,18.0,12.0,-100.00,WNW,284,4.0,6.0,76,0.00,,,0.42,0.000000,,2013-10-05 07:42:00,
2013-10-05 01:52:00,18.0,12.0,-100.00,WNW,284,4.0,6.0,76,0.00,,,0.42,0.000000,,2013-10-05 07:52:00,
2013-10-05 02:02:00,18.0,12.0,-100.00,WNW,284,4.0,6.0,76,0.00,,,0.42,0.000000,,2013-10-05 08:02:00,
2013-10-05 02:12:00,18.0,12.0,-100.00,WNW,284,4.0,6.0,76,0.00,,,0.42,0.000000,,2013-10-05 08:12:00,
2013-10-05 03:43:00,18.0,11.0,-100.00,WNW,283,4.0,7.0,74,0.00,,,0.42,0.000000,,2013-10-05 09:43:00,
2013-10-05 03:54:00,18.0,11.0,-100.00,WNW,283,4.0,7.0,74,0.00,,,0.42,0.000000,,2013-10-05 09:54:00,
2013-10-05 04:03:00,18.0,11.0,-100.00,WNW,283,4.0,7.0,74,0.00,,,0.42,0.000000,,2013-10-05 10:03:00,
2013-10-05 04:12:00,18.0,11.0,-100.00,WNW,283,4.0,7.0,74,0.00,,,0.42,0.000000,,2013-10-05 10:12:00,
2013-10-05 04:43:00,20.0,14.0,-100.00,NW,307,6.0,9.0,77,0.00,,,0.42,0.000000,,2013-10-05 10:43:00,
2013-10-05 04:53:00,20.0,14.0,-100.00,NW,307,6.0,9.0,77,0.00,,,0.42,0.000000,,2013-10-05 10:53:00,
2013-10-05 05:02:00,20.0,14.0,-100.00,NW,307,6.0,9.0,77,0.00,,,0.42,0.000000,,2013-10-05 11:02:00,
2013-10-05 05:11:00,20.0,14.0,-100.00,NW,307,6.0,9.0,77,0.00,,,0.42,0.000000,,2013-10-05 11:11:00,
2013-10-05 05:43:00,19.0,14.0,-100.00,WNW,287,5.0,9.0,79,0.00,,,0.42,0.000000,,2013-10-05 11:43:00,
2013-10-05 05:52:00,19.0,14.0,-100.00,WNW,287,5.0,9.0,79,0.00,,,0.42,0.000000,,2013-10-05 11:52:00,
2013-10-05 06:01:00,19.0,14.0,-100.00,WNW,287,5.0,9.0,79,0.00,,,0.42,0.000000,,2013-10-05 12:01:00,
2013-10-05 06:12:00,19.0,14.0,-100.00,WNW,287,5.0,9.0,79,0.00,,,0.42,0.000000,,2013-10-05 12:12:00,
2013-10-05 06:42:00,19.0,14.0,-100.00,WNW,287,4.0,8.0,80,0.00,,,0.42,0.000000,,2013-10-05 12:42:00,
2013-10-05 06:53:00,19.0,14.0,-100.00,WNW,287,4.0,8.0,80,0.00,,,0.42,0.000000,,2013-10-05 12:53:00,
2013-10-05 07:02:00,19.0,14.0,-100.00,WNW,287,4.0,8.0,80,0.00,,,0.42,0.000000,,2013-10-05 13:02:00,
2013-10-05 07:12:00,19.0,14.0,-100.00,WNW,287,4.0,8.0,80,0.00,,,0.42,0.000000,,2013-10-05 13:12:00,
2013-10-05 07:42:00,19.0,13.0,-100.00,WNW,284,4.0,10.0,78,0.00,,,0.42,0.000000,,2013-10-05 13:42:00,
2013-10-05 07:52:00,19.0,13.0,-100.00,WNW,284,4.0,10.0,78,0.00,,,0.42,0.000000,,2013-10-05 13:52:00,
2013-10-05 08:02:00,19.0,13.0,-100.00,WNW,284,4.0,10.0,78,0.00,,,0.42,0.000000,,2013-10-05 14:02:00,
2013-10-05 08:11:00,19.0,13.0,-100.00,WNW,284,4.0,10.0,78,0.00,,,0.42,0.000000,,2013-10-05 14:11:00,
2013-10-05 08:42:00,24.0,17.0,-100.00,WNW,286,3.0,9.0,74,0.00,,,0.42,39.000000,,2013-10-05 14:42:00,
2013-10-05 08:52:00,24.0,17.0,-100.00,WNW,286,3.0,9.0,74,0.00,,,0.42,39.000000,,2013-10-05 14:52:00,
2013-10-05 09:02:00,24.0,17.0,-100.00,WNW,286,3.0,9.0,74,0.00,,,0.42,39.000000,,2013-10-05 15:02:00,
2013-10-05 09:12:00,24.0,17.0,-100.00,WNW,286,3.0,9.0,74,0.00,,,0.42,39.000000,,2013-10-05 15:12:00,
2013-10-05 09:44:00,34.0,21.0,-100.00,WSW,255,2.0,6.0,58,0.00,,,0.42,197.000000,,2013-10-05 15:44:00,
2013-10-05 09:53:00,34.0,21.0,-100.00,WSW,255,2.0,6.0,58,0.00,,,0.42,197.000000,,2013-10-05 15:53:00,
2013-10-05 10:03:00,34.0,21.0,-100.00,WSW,255,2.0,6.0,58,0.00,,,0.42,197.000000,,2013-10-05 16:03:00,
2013-10-05 10:13:00,34.0,21.0,-100.00,WSW,255,2.0,6.0,58,0.00,,,0.42,197.000000,,2013-10-05 16:13:00,
2013-10-05 10:53:00,42.0,17.0,-100.00,East,93,5.0,7.0,36,0.02,,,0.44,369.000000,,2013-10-05 16:53:00,
2013-10-05 11:02:00,42.0,17.0,-100.00,East,93,5.0,7.0,36,0.02,,,0.44,369.000000,,2013-10-05 17:02:00,
2013-10-05 11:12:00,42.0,17.0,-100.00,East,93,5.0,7.0,36,0.02,,,0.44,369.000000,,2013-10-05 17:12:00,
2013-10-05 12:12:00,45.0,19.0,-100.00,ESE,103,4.0,7.0,35,-99.99,,,0.45,751.000000,,2013-10-05 18:12:00,
2013-10-05 12:52:00,46.0,19.0,-100.00,ENE,63,6.0,15.0,34,-99.99,,,0.47,742.000000,,2013-10-05 18:52:00,
2013-10-05 13:01:00,46.0,19.0,-100.00,ENE,63,6.0,15.0,34,-99.99,,,0.47,742.000000,,2013-10-05 19:01:00,
2013-10-05 13:11:00,46.0,19.0,-100.00,ENE,63,6.0,15.0,34,-99.99,,,0.47,742.000000,,2013-10-05 19:11:00,
2013-10-05 15:44:00,45.0,22.0,-100.00,East,86,9.0,16.0,40,-99.99,,,0.20,687.000000,,2013-10-05 21:44:00,
2013-10-05 15:54:00,45.0,22.0,-100.00,East,86,9.0,16.0,40,-99.99,,,0.20,687.000000,,2013-10-05 21:54:00,
2013-10-05 16:04:00,45.0,22.0,-100.00,East,86,9.0,16.0,40,-99.99,,,0.20,687.000000,,2013-10-05 22:04:00,
2013-10-05 16:12:00,45.0,22.0,-100.00,East,86,9.0,16.0,40,-99.99,,,0.20,687.000000,,2013-10-05 22:12:00,
2013-10-05 16:42:00,45.0,22.0,-100.00,ESE,104,6.0,14.0,39,0.00,,,0.10,521.000000,,2013-10-05 22:42:00,
2013-10-05 16:53:00,45.0,22.0,-100.00,ESE,104,6.0,14.0,39,0.00,,,0.10,521.000000,,2013-10-05 22:53:00,
2013-10-05 17:02:00,45.0,22.0,-100.00,ESE,104,6.0,14.0,39,0.00,,,0.10,521.000000,,2013-10-05 23:02:00,
2013-10-05 17:13:00,45.0,22.0,-100.00,ESE,104,6.0,14.0,39,0.00,,,0.10,521.000000,,2013-10-05 23:13:00,
2013-10-05 17:43:00,43.0,22.0,-100.00,East,84,6.0,13.0,43,0.00,,,0.06,244.000000,,2013-10-05 23:43:00,
2013-10-05 17:53:00,43.0,22.0,-100.00,East,84,6.0,13.0,43,0.00,,,0.06,244.000000,,2013-10-05 23:53:00,
2013-10-05 18:02:00,43.0,22.0,-100.00,East,84,6.0,13.0,43,0.00,,,0.06,244.000000,,2013-10-06 00:02:00,
2013-10-05 18:12:00,43.0,22.0,-100.00,East,84,6.0,13.0,43,0.00,,,0.06,244.000000,,2013-10-06 00:12:00,
2013-10-05 18:43:00,39.0,29.0,-100.00,West,270,3.0,6.0,67,0.00,,,0.05,114.000000,,2013-10-06 00:43:00,
2013-10-05 18:52:00,39.0,29.0,-100.00,West,270,3.0,6.0,67,0.00,,,0.05,114.000000,,2013-10-06 00:52:00,
2013-10-05 19:02:00,39.0,29.0,-100.00,West,270,3.0,6.0,67,0.00,,,0.05,114.000000,,2013-10-06 01:02:00,
2013-10-05 19:11:00,39.0,29.0,-100.00,West,270,3.0,6.0,67,0.00,,,0.05,114.000000,,2013-10-06 01:11:00,
2013-10-05 19:42:00,34.0,29.0,-100.00,NW,316,2.0,6.0,82,0.00,,,0.05,14.000000,,2013-10-06 01:42:00,
2013-10-05 19:52:00,34.0,29.0,-100.00,NW,316,2.0,6.0,82,0.00,,,0.05,14.000000,,2013-10-06 01:52:00,
2013-10-05 20:02:00,34.0,29.0,-100.00,NW,316,2.0,6.0,82,0.00,,,0.05,14.000000,,2013-10-06 02:02:00,
2013-10-05 20:11:00,34.0,29.0,-100.00,NW,316,2.0,6.0,82,0.00,,,0.05,14.000000,,2013-10-06 02:11:00,
2013-10-05 20:42:00,32.0,27.0,-100.00,SE,145,3.0,6.0,82,0.00,,,0.05,0.000000,,2013-10-06 02:42:00,
2013-10-05 20:52:00,32.0,27.0,-100.00,SE,145,3.0,6.0,82,0.00,,,0.05,0.000000,,2013-10-06 02:52:00,
2013-10-05 21:02:00,32.0,27.0,-100.00,SE,145,3.0,6.0,82,0.00,,,0.05,0.000000,,2013-10-06 03:02:00,
2013-10-05 21:12:00,32.0,27.0,-100.00,SE,145,3.0,6.0,82,0.00,,,0.05,0.000000,,2013-10-06 03:12:00,
2013-10-05 21:45:00,34.0,28.0,-100.00,West,269,3.0,6.0,80,0.00,,,0.05,0.000000,,2013-10-06 03:45:00,
2013-10-05 21:54:00,34.0,28.0,-100.00,West,269,3.0,6.0,80,0.00,,,0.05,0.000000,,2013-10-06 03:54:00,
2013-10-05 22:13:00,34.0,28.0,-100.00,West,269,3.0,6.0,80,0.00,,,0.05,0.000000,,2013-10-06 04:13:00,
2013-10-05 22:44:00,34.0,29.0,-100.00,WNW,287,3.0,6.0,82,0.00,,,0.05,0.000000,,2013-10-06 04:44:00,
2013-10-05 22:54:00,34.0,29.0,-100.00,WNW,287,3.0,6.0,82,0.00,,,0.05,0.000000,,2013-10-06 04:54:00,
2013-10-05 23:03:00,34.0,29.0,-100.00,WNW,287,3.0,6.0,82,0.00,,,0.05,0.000000,,2013-10-06 05:03:00,
2013-10-05 23:13:00,34.0,29.0,-100.00,WNW,287,3.0,6.0,82,0.00,,,0.05,0.000000,,2013-10-06 05:13:00,
2013-10-05 23:43:00,33.0,28.0,-100.00,West,273,3.0,6.0,83,0.00,,,0.05,0.000000,,2013-10-06 05:43:00,
2013-10-05 23:52:00,33.0,28.0,-100.00,West,273,3.0,6.0,83,0.00,,,0.05,0.000000,,2013-10-06 05:52:00,